Time;durP1;ratioP1;P1;durP2;ratioP2;P2;SDS_P1;SDS_P2;PMS_P1;PMS_P2;Temp;Humidity;BMP_temperature;BMP_pressure;BME280_temperature;BME280_humidity;BME280_pressure;Samples;Min_cycle;Max_cycle;Signal;HPM_P1;HPM_P2
2023/08/02 00:01:58;;;;;;;;;;;;;;;;;;5031455;28;20310;-88
2023/08/02 00:04:24;;;;;;;;;;;;;;;;;;5051153;28;19981;-88
2023/08/02 00:06:49;;;;;;;;;;;;;;;;;;5057051;28;20369;-88
2023/08/02 00:09:16;;;;;;;;;;;;;;;;;;5018842;28;19959;-88
2023/08/02 00:11:42;;;;;;;;;;;;;;;;;;5021556;28;19920;-88
2023/08/02 00:14:08;;;;;;;;;;;;;;;;;;5051134;28;19947;-88
2023/08/02 00:16:34;;;;;;;;;;;;;;;;;;5040993;28;20011;-88
2023/08/02 00:19:00;;;;;;;;;;;;;;;;;;5038178;28;19920;-88
2023/08/02 00:21:26;;;;;;;;;;;;;;;;;;5013985;28;21575;-88
2023/08/02 00:23:51;;;;;;;;;;;;;;;;;;5045414;28;19936;-87
2023/08/02 00:26:17;;;;;;;;;;;;;;;;;;5032496;28;20051;-88
2023/08/02 00:28:43;;;;;;;;;;;;;;;;;;5039015;28;19931;-88
2023/08/02 00:31:09;;;;;;;;;;;;;;;;;;5038216;28;20374;-88
2023/08/02 00:33:35;;;;;;;;;;;;;;;;;;5014389;28;19932;-87
2023/08/02 00:36:01;;;;;;;;;;;;;;;;;;5022280;28;19924;-88
2023/08/02 00:38:27;;;;;;;;;;;;;;;;;;5033253;28;19982;-88
2023/08/02 00:40:53;;;;;;;;;;;;;;;;;;5036516;28;20470;-88
2023/08/02 00:43:19;;;;;;;;;;;;;;;;;;5017643;28;19928;-88
2023/08/02 00:45:45;;;;;;;;;;;;;;;;;;5020946;28;20023;-88
2023/08/02 00:48:11;;;;;;;;;;;;;;;;;;5034800;28;19925;-88
2023/08/02 00:50:37;;;;;;;;;;;;;;;;;;5018368;28;19928;-88
2023/08/02 00:53:03;;;;;;;;;;;;;;;;;;5020977;28;19920;-88
2023/08/02 00:55:29;;;;;;;;;;;;;;;;;;5019995;28;20337;-88
2023/08/02 00:57:56;;;;;;;;;;;;;;;;;;5000204;28;19935;-87
2023/08/02 01:00:22;;;;;;;;;;;;;;;;;;5017955;28;19927;-88
2023/08/02 01:02:48;;;;;;;;;;;;;;;;;;5020752;28;19920;-88
2023/08/02 01:05:14;;;;;;;;;;;;;;;;;;5031299;28;20070;-87
2023/08/02 01:07:40;;;;;;;;;;;;;;;;;;5023358;28;19920;-88
2023/08/02 01:10:06;;;;;;;;;;;;;;;;;;5019543;28;20429;-88
2023/08/02 01:12:32;;;;;;;;;;;;;;;;;;5022390;28;19974;-88
2023/08/02 01:14:59;;;;;;;;;;;;;;;;;;5003057;28;19928;-88
2023/08/02 01:17:25;;;;;;;;;;;;;;;;;;5016330;28;19935;-88
2023/08/02 01:19:51;;;;;;;;;;;;;;;;;;5020564;28;19933;-88
2023/08/02 01:22:17;;;;;;;;;;;;;;;;;;5013360;28;20404;-88
2023/08/02 01:24:43;;;;;;;;;;;;;;;;;;5019435;28;20019;-88
2023/08/02 01:27:09;;;;;;;;;;;;;;;;;;5030848;28;20386;-88
2023/08/02 01:29:35;;;;;;;;;;;;;;;;;;5018944;28;20294;-88
2023/08/02 01:32:01;;;;;;;;;;;;;;;;;;5026558;28;19942;-88
2023/08/02 01:34:27;;;;;;;;;;;;;;;;;;5037174;28;19940;-88
2023/08/02 01:36:53;;;;;;;;;;;;;;;;;;5038875;28;19935;-88
2023/08/02 01:39:19;;;;;;;;;;;;;;;;;;5017512;28;20329;-88
2023/08/02 01:41:45;;;;;;;;;;;;;;;;;;5036848;28;19928;-88
2023/08/02 01:44:11;;;;;;;;;;;;;;;;;;5010951;28;19987;-88
2023/08/02 01:46:37;;;;;;;;;;;;;;;;;;5035313;28;19936;-88
2023/08/02 01:49:03;;;;;;;;;;;;;;;;;;5038738;28;19921;-88
2023/08/02 01:51:29;;;;;;;;;;;;;;;;;;5008733;28;19925;-88
2023/08/02 01:53:55;;;;;;;;;;;;;;;;;;5038619;28;19929;-88
2023/08/02 01:56:21;;;;;;;;;;;;;;;;;;5014687;28;19924;-88
2023/08/02 01:58:47;;;;;;;;;;;;;;;;;;5020423;28;20294;-88
2023/08/02 02:01:13;;;;;;;;;;;;;;;;;;4999897;28;20018;-88
2023/08/02 02:03:39;;;;;;;;;;;;;;;;;;5017432;28;19939;-88
2023/08/02 02:06:05;;;;;;;;;;;;;;;;;;5022238;28;19947;-88
2023/08/02 02:08:31;;;;;;;;;;;;;;;;;;5013102;28;20105;-87
2023/08/02 02:10:56;;;;;;;;;;;;;;;;;;5021327;28;19938;-88
2023/08/02 02:13:22;;;;;;;;;;;;;;;;;;5020581;28;19983;-88
2023/08/02 02:15:48;;;;;;;;;;;;;;;;;;5025450;28;19973;-88
2023/08/02 02:18:14;;;;;;;;;;;;;;;;;;5030822;28;20000;-88
2023/08/02 02:20:40;;;;;;;;;;;;;;;;;;5019025;28;20385;-88
2023/08/02 02:23:06;;;;;;;;;;;;;;;;;;5014149;28;21494;-88
2023/08/02 02:25:32;;;;;;;;;;;;;;;;;;5019071;28;19924;-88
2023/08/02 02:27:58;;;;;;;;;;;;;;;;;;5035592;28;19924;-88
2023/08/02 02:30:24;;;;;;;;;;;;;;;;;;5015594;28;19925;-88
2023/08/02 02:32:50;;;;;;;;;;;;;;;;;;5037013;28;19928;-88
2023/08/02 02:35:16;;;;;;;;;;;;;;;;;;5014247;28;19972;-87
2023/08/02 02:37:42;;;;;;;;;;;;;;;;;;5040607;28;20275;-88
2023/08/02 02:40:08;;;;;;;;;;;;;;;;;;5012941;28;19932;-88
2023/08/02 02:42:34;;;;;;;;;;;;;;;;;;5016849;28;19929;-88
2023/08/02 02:45:00;;;;;;;;;;;;;;;;;;5017463;28;19928;-88
2023/08/02 02:47:26;;;;;;;;;;;;;;;;;;5014224;28;21818;-88
2023/08/02 02:49:52;;;;;;;;;;;;;;;;;;5021180;28;19928;-88
2023/08/02 02:52:18;;;;;;;;;;;;;;;;;;5014708;28;19932;-88
2023/08/02 02:54:44;;;;;;;;;;;;;;;;;;5007077;28;19955;-88
2023/08/02 02:57:10;;;;;;;;;;;;;;;;;;5013366;28;20378;-88
2023/08/02 02:59:36;;;;;;;;;;;;;;;;;;5017210;28;20357;-88
2023/08/02 03:02:02;;;;;;;;;;;;;;;;;;5016844;28;19924;-88
2023/08/02 03:04:28;;;;;;;;;;;;;;;;;;5014919;28;19956;-88
2023/08/02 03:06:54;;;;;;;;;;;;;;;;;;5010836;28;19981;-88
2023/08/02 03:09:20;;;;;;;;;;;;;;;;;;5013341;28;20374;-88
2023/08/02 03:11:46;;;;;;;;;;;;;;;;;;5017157;28;20062;-88
2023/08/02 03:14:12;;;;;;;;;;;;;;;;;;5018101;28;20282;-87
2023/08/02 03:16:38;;;;;;;;;;;;;;;;;;5017597;28;19921;-88
2023/08/02 03:19:04;;;;;;;;;;;;;;;;;;5018781;28;19932;-88
2023/08/02 03:21:30;;;;;;;;;;;;;;;;;;5014620;28;19925;-88
2023/08/02 03:23:56;;;;;;;;;;;;;;;;;;5018627;28;19933;-88
2023/08/02 03:26:22;;;;;;;;;;;;;;;;;;5000614;28;20001;-88
2023/08/02 03:28:48;;;;;;;;;;;;;;;;;;5019328;28;19955;-88
2023/08/02 03:31:13;;;;;;;;;;;;;;;;;;5025824;28;19932;-87
2023/08/02 03:33:39;;;;;;;;;;;;;;;;;;5024339;28;20370;-88
2023/08/02 03:36:06;;;;;;;;;;;;;;;;;;5020194;28;19932;-88
2023/08/02 03:38:32;;;;;;;;;;;;;;;;;;5007662;28;19925;-88
2023/08/02 03:40:58;;;;;;;;;;;;;;;;;;5022740;28;19928;-88
2023/08/02 03:43:24;;;;;;;;;;;;;;;;;;5021115;28;19933;-88
2023/08/02 03:45:50;;;;;;;;;;;;;;;;;;5021512;28;19989;-88
2023/08/02 03:48:16;;;;;;;;;;;;;;;;;;5017495;28;20297;-88
2023/08/02 03:50:41;;;;;;;;;;;;;;;;;;5024220;28;19937;-88
2023/08/02 03:53:07;;;;;;;;;;;;;;;;;;5013775;28;20295;-88
2023/08/02 03:55:33;;;;;;;;;;;;;;;;;;5033774;28;19924;-88
2023/08/02 03:57:59;;;;;;;;;;;;;;;;;;5034468;28;19925;-88
2023/08/02 04:00:25;;;;;;;;;;;;;;;;;;4995680;28;19929;-88
2023/08/02 04:02:51;;;;;;;;;;;;;;;;;;5040111;28;20350;-88
2023/08/02 04:05:17;;;;;;;;;;;;;;;;;;5011852;28;19924;-88
2023/08/02 04:07:43;;;;;;;;;;;;;;;;;;5015822;28;19975;-88
2023/08/02 04:10:10;;;;;;;;;;;;;;;;;;5029496;28;19987;-88
2023/08/02 04:12:36;;;;;;;;;;;;;;;;;;5013231;28;20367;-88
2023/08/02 04:15:02;;;;;;;;;;;;;;;;;;5023334;28;19920;-88
2023/08/02 04:17:28;;;;;;;;;;;;;;;;;;5015239;28;19931;-88
2023/08/02 04:19:53;;;;;;;;;;;;;;;;;;5032868;28;19992;-88
2023/08/02 04:22:20;;;;;;;;;;;;;;;;;;5027376;28;19929;-88
2023/08/02 04:24:46;;;;;;;;;;;;;;;;;;5030989;28;20517;-88
2023/08/02 04:27:12;;;;;;;;;;;;;;;;;;5030032;28;20035;-88
2023/08/02 04:29:38;;;;;;;;;;;;;;;;;;5049869;28;19928;-88
2023/08/02 04:32:04;;;;;;;;;;;;;;;;;;5043650;28;20375;-88
2023/08/02 04:34:30;;;;;;;;;;;;;;;;;;5032711;28;19924;-88
2023/08/02 04:36:56;;;;;;;;;;;;;;;;;;5022562;28;19935;-88
2023/08/02 04:39:22;;;;;;;;;;;;;;;;;;5017154;28;19929;-88
2023/08/02 04:41:48;;;;;;;;;;;;;;;;;;5038239;28;19951;-87
2023/08/02 04:44:14;;;;;;;;;;;;;;;;;;5036146;28;19925;-88
2023/08/02 04:46:40;;;;;;;;;;;;;;;;;;5037149;28;19943;-88
2023/08/02 04:49:06;;;;;;;;;;;;;;;;;;5021381;28;19928;-88
2023/08/02 04:51:36;;;;;;;;;;;;;;;;;;5003237;28;20313;-88
2023/08/02 04:54:02;;;;;;;;;;;;;;;;;;5016669;28;20601;-88
2023/08/02 04:56:28;;;;;;;;;;;;;;;;;;5031665;28;19968;-88
2023/08/02 04:58:54;;;;;;;;;;;;;;;;;;5018645;28;20010;-88
2023/08/02 05:01:20;;;;;;;;;;;;;;;;;;5015937;28;19921;-88
2023/08/02 05:03:46;;;;;;;;;;;;;;;;;;5035445;28;19968;-88
2023/08/02 05:06:12;;;;;;;;;;;;;;;;;;5027350;28;19925;-88
2023/08/02 05:08:38;;;;;;;;;;;;;;;;;;5014095;28;19921;-88
2023/08/02 05:11:04;;;;;;;;;;;;;;;;;;5033801;28;19924;-88
2023/08/02 05:13:30;;;;;;;;;;;;;;;;;;5018786;28;20347;-88
2023/08/02 05:15:56;;;;;;;;;;;;;;;;;;5036370;28;20015;-88
2023/08/02 05:18:22;;;;;;;;;;;;;;;;;;5031389;28;20434;-88
2023/08/02 05:20:48;;;;;;;;;;;;;;;;;;5019887;28;19971;-88
2023/08/02 05:23:14;;;;;;;;;;;;;;;;;;5035078;28;19936;-88
2023/08/02 05:25:40;;;;;;;;;;;;;;;;;;5022960;28;19928;-88
2023/08/02 05:28:06;;;;;;;;;;;;;;;;;;5036908;28;19936;-89
2023/08/02 05:30:32;;;;;;;;;;;;;;;;;;5020211;28;19935;-88
2023/08/02 05:32:58;;;;;;;;;;;;;;;;;;5029824;28;19928;-88
2023/08/02 05:35:25;;;;;;;;;;;;;;;;;;5035373;28;19924;-88
2023/08/02 05:37:51;;;;;;;;;;;;;;;;;;5019226;28;20027;-88
2023/08/02 05:40:17;;;;;;;;;;;;;;;;;;5012348;28;20473;-88
2023/08/02 05:42:43;;;;;;;;;;;;;;;;;;5021094;28;19924;-88
2023/08/02 05:45:10;;;;;;;;;;;;;;;;;;5016849;28;19940;-87
2023/08/02 05:47:36;;;;;;;;;;;;;;;;;;5037163;28;20347;-87
2023/08/02 05:50:01;;;;;;;;;;;;;;;;;;5019246;28;19932;-88
2023/08/02 05:52:27;;;;;;;;;;;;;;;;;;5013596;28;19968;-88
2023/08/02 05:54:53;;;;;;;;;;;;;;;;;;5036966;28;19925;-88
2023/08/02 05:57:19;;;;;;;;;;;;;;;;;;5014006;28;19924;-88
2023/08/02 05:59:45;;;;;;;;;;;;;;;;;;5020974;28;19983;-88
2023/08/02 06:02:11;;;;;;;;;;;;;;;;;;5014640;28;20382;-87
2023/08/02 06:04:37;;;;;;;;;;;;;;;;;;5020216;28;19965;-88
2023/08/02 06:07:03;;;;;;;;;;;;;;;;;;5019248;28;20270;-87
2023/08/02 06:09:29;;;;;;;;;;;;;;;;;;5015070;28;19925;-88
2023/08/02 06:11:55;;;;;;;;;;;;;;;;;;5036637;28;19928;-87
2023/08/02 06:14:21;;;;;;;;;;;;;;;;;;5028963;28;19928;-88
2023/08/02 06:16:47;;;;;;;;;;;;;;;;;;5035857;28;19928;-88
2023/08/02 06:19:13;;;;;;;;;;;;;;;;;;4995385;28;19953;-87
2023/08/02 06:21:39;;;;;;;;;;;;;;;;;;5034020;28;19928;-88
2023/08/02 06:24:08;;;;;;;;;;;;;;;;;;5011494;28;20023;-88
2023/08/02 06:26:34;;;;;;;;;;;;;;;;;;5016541;28;19967;-88
2023/08/02 06:29:00;;;;;;;;;;;;;;;;;;5017998;28;19924;-88
2023/08/02 06:31:26;;;;;;;;;;;;;;;;;;5029087;28;22440;-88
2023/08/02 06:33:52;;;;;;;;;;;;;;;;;;5018726;28;19931;-88
2023/08/02 06:36:18;;;;;;;;;;;;;;;;;;5011769;28;19978;-88
2023/08/02 06:38:44;;;;;;;;;;;;;;;;;;5036694;28;19925;-88
2023/08/02 06:41:10;;;;;;;;;;;;;;;;;;5034036;28;19929;-88
2023/08/02 06:43:36;;;;;;;;;;;;;;;;;;5035689;28;20403;-87
2023/08/02 06:46:02;;;;;;;;;;;;;;;;;;5033688;28;20050;-87
2023/08/02 06:48:28;;;;;;;;;;;;;;;;;;5028515;28;19925;-87
2023/08/02 06:50:54;;;;;;;;;;;;;;;;;;5034507;28;20026;-88
2023/08/02 06:53:20;;;;;;;;;;;;;;;;;;5031274;28;19947;-88
2023/08/02 06:55:46;;;;;;;;;;;;;;;;;;5038135;28;19935;-88
2023/08/02 06:58:12;;;;;;;;;;;;;;;;;;5012972;28;19932;-87
2023/08/02 07:00:38;;;;;;;;;;;;;;;;;;5033987;28;19934;-88
2023/08/02 07:03:05;;;;;;;;;;;;;;;;;;5016361;28;19928;-87
2023/08/02 07:05:31;;;;;;;;;;;;;;;;;;5015707;28;19925;-87
2023/08/02 07:07:57;;;;;;;;;;;;;;;;;;5019250;28;19928;-87
2023/08/02 07:10:23;;;;;;;;;;;;;;;;;;5028663;28;19966;-88
2023/08/02 07:12:49;;;;;;;;;;;;;;;;;;5036688;28;20003;-88
2023/08/02 07:15:15;;;;;;;;;;;;;;;;;;5011713;28;19935;-87
2023/08/02 07:17:41;;;;;;;;;;;;;;;;;;5014647;28;19925;-87
2023/08/02 07:20:08;;;;;;;;;;;;;;;;;;5007538;28;19982;-87
2023/08/02 07:22:34;;;;;;;;;;;;;;;;;;5015088;28;20314;-88
2023/08/02 07:25:00;;;;;;;;;;;;;;;;;;5028282;28;19979;-88
2023/08/02 07:27:26;;;;;;;;;;;;;;;;;;5022818;28;21820;-88
2023/08/02 07:29:52;;;;;;;;;;;;;;;;;;5022953;28;19931;-87
2023/08/02 07:32:18;;;;;;;;;;;;;;;;;;5019127;28;20019;-88
2023/08/02 07:34:45;;;;;;;;;;;;;;;;;;5032510;28;19928;-87
2023/08/02 07:37:12;;;;;;;;;;;;;;;;;;5015270;28;20058;-87
2023/08/02 07:39:40;;;;;;;;;;;;;;;;;;5019518;28;19928;-87
2023/08/02 07:42:06;;;;;;;;;;;;;;;;;;5022356;28;19932;-88
2023/08/02 07:44:32;;;;;;;;;;;;;;;;;;5025624;28;20497;-88
2023/08/02 07:46:58;;;;;;;;;;;;;;;;;;5021120;28;19936;-87
2023/08/02 07:49:27;;;;;;;;;;;;;;;;;;5015965;28;20015;-87
2023/08/02 07:51:54;;;;;;;;;;;;;;;;;;5024933;28;19932;-87
2023/08/02 07:54:20;;;;;;;;;;;;;;;;;;5021802;28;19929;-87
2023/08/02 07:56:46;;;;;;;;;;;;;;;;;;5029879;28;19927;-88
2023/08/02 07:59:12;;;;;;;;;;;;;;;;;;5014585;28;19937;-88
2023/08/02 08:01:38;;;;;;;;;;;;;;;;;;5018817;28;19925;-88
2023/08/02 08:04:04;;;;;;;;;;;;;;;;;;5026493;28;20276;-88
2023/08/02 08:06:30;;;;;;;;;;;;;;;;;;5034238;28;19928;-88
2023/08/02 08:08:56;;;;;;;;;;;;;;;;;;5028631;28;19929;-88
2023/08/02 08:11:22;;;;;;;;;;;;;;;;;;5022359;28;20568;-88
2023/08/02 08:13:48;;;;;;;;;;;;;;;;;;5025574;28;19929;-88
2023/08/02 08:16:14;;;;;;;;;;;;;;;;;;5021811;28;19974;-88
2023/08/02 08:18:40;;;;;;;;;;;;;;;;;;5041149;28;19920;-89
2023/08/02 08:21:09;;;;;;;;;;;;;;;;;;5019894;28;20444;-89
2023/08/02 08:23:35;;;;;;;;;;;;;;;;;;5011170;28;20311;-88
2023/08/02 08:26:01;;;;;;;;;;;;;;;;;;5023840;28;19979;-88
2023/08/02 08:28:27;;;;;;;;;;;;;;;;;;5038027;28;20385;-88
2023/08/02 08:30:53;;;;;;;;;;;;;;;;;;5027545;28;19924;-89
2023/08/02 08:33:19;;;;;;;;;;;;;;;;;;5023840;28;19929;-89
2023/08/02 08:35:45;;;;;;;;;;;;;;;;;;5021540;28;20027;-88
2023/08/02 08:38:11;;;;;;;;;;;;;;;;;;4999632;28;20007;-89
2023/08/02 08:40:37;;;;;;;;;;;;;;;;;;5005897;28;20370;-88
2023/08/02 08:43:03;;;;;;;;;;;;;;;;;;5006566;28;20071;-88
2023/08/02 08:45:29;;;;;;;;;;;;;;;;;;5022045;28;19929;-88
2023/08/02 08:47:55;;;;;;;;;;;;;;;;;;5024159;28;19928;-88
2023/08/02 08:50:21;;;;;;;;;;;;;;;;;;5001274;28;19955;-88
2023/08/02 08:52:47;;;;;;;;;;;;;;;;;;5010521;28;19990;-88
2023/08/02 08:55:13;;;;;;;;;;;;;;;;;;5004825;28;19935;-88
2023/08/02 08:57:39;;;;;;;;;;;;;;;;;;5006767;28;19925;-88
2023/08/02 09:00:04;;;;;;;;;;;;;;;;;;5004202;28;19936;-88
2023/08/02 09:02:31;;;;;;;;;;;;;;;;;;5019648;28;19929;-88
2023/08/02 09:04:56;;;;;;;;;;;;;;;;;;5004853;28;19952;-88
2023/08/02 09:07:22;;;;;;;;;;;;;;;;;;5003525;28;19929;-89
2023/08/02 09:09:48;;;;;;;;;;;;;;;;;;5008345;28;20298;-88
2023/08/02 09:12:14;;;;;;;;;;;;;;;;;;4999763;28;19932;-88
2023/08/02 09:14:40;;;;;;;;;;;;;;;;;;5004205;28;19947;-88
2023/08/02 09:17:06;;;;;;;;;;;;;;;;;;5007165;28;19932;-89
2023/08/02 09:19:32;;;;;;;;;;;;;;;;;;4992476;28;19929;-88
2023/08/02 09:21:58;;;;;;;;;;;;;;;;;;5005861;28;19925;-88
2023/08/02 09:24:24;;;;;;;;;;;;;;;;;;5002299;28;19940;-88
2023/08/02 09:26:50;;;;;;;;;;;;;;;;;;5005339;28;19929;-88
2023/08/02 09:29:16;;;;;;;;;;;;;;;;;;5003180;28;19925;-89
2023/08/02 09:31:42;;;;;;;;;;;;;;;;;;5009437;28;19921;-89
2023/08/02 09:34:10;;;;;;;;;;;;;;;;;;5002265;28;19940;-89
2023/08/02 09:36:36;;;;;;;;;;;;;;;;;;5001584;28;19982;-89
2023/08/02 09:39:02;;;;;;;;;;;;;;;;;;5002012;28;20700;-88
2023/08/02 09:41:28;;;;;;;;;;;;;;;;;;4995933;28;19932;-88
2023/08/02 09:43:54;;;;;;;;;;;;;;;;;;4999264;28;19925;-88
2023/08/02 09:46:20;;;;;;;;;;;;;;;;;;4997989;28;19956;-88
2023/08/02 09:48:46;;;;;;;;;;;;;;;;;;4983390;28;20653;-88
2023/08/02 09:51:12;;;;;;;;;;;;;;;;;;4999377;28;19935;-88
2023/08/02 09:53:38;;;;;;;;;;;;;;;;;;4999165;28;19928;-88
2023/08/02 09:56:04;;;;;;;;;;;;;;;;;;5000108;28;19971;-88
2023/08/02 09:58:30;;;;;;;;;;;;;;;;;;4998388;28;20082;-88
2023/08/02 10:00:56;;;;;;;;;;;;;;;;;;4997617;28;19929;-87
2023/08/02 10:03:27;;;;;;;;;;;;;;;;;;5000447;28;19929;-88
2023/08/02 10:05:53;;;;;;;;;;;;;;;;;;5021639;28;19928;-89
2023/08/02 10:08:19;;;;;;;;;;;;;;;;;;4998000;28;20291;-88
2023/08/02 10:10:46;;;;;;;;;;;;;;;;;;5009064;28;19929;-88
2023/08/02 10:13:12;;;;;;;;;;;;;;;;;;4990046;28;19931;-89
2023/08/02 10:15:40;;;;;;;;;;;;;;;;;;5010097;28;19924;-88
2023/08/02 10:18:09;;;;;;;;;;;;;;;;;;5009316;28;19928;-88
2023/08/02 10:20:35;;;;;;;;;;;;;;;;;;5011687;28;20382;-88
2023/08/02 10:23:01;;;;;;;;;;;;;;;;;;5009604;28;20016;-88
2023/08/02 10:25:27;;;;;;;;;;;;;;;;;;4991274;28;20378;-88
2023/08/02 10:27:53;;;;;;;;;;;;;;;;;;5012184;28;19928;-87
2023/08/02 10:30:20;;;;;;;;;;;;;;;;;;5008661;28;19924;-88
2023/08/02 10:32:46;;;;;;;;;;;;;;;;;;4998818;28;19929;-89
2023/08/02 10:35:12;;;;;;;;;;;;;;;;;;5013346;28;19929;-89
2023/08/02 10:37:38;;;;;;;;;;;;;;;;;;4999436;28;19928;-88
2023/08/02 10:40:04;;;;;;;;;;;;;;;;;;4998413;28;20384;-88
2023/08/02 10:42:30;;;;;;;;;;;;;;;;;;4990198;28;19932;-87
2023/08/02 10:44:56;;;;;;;;;;;;;;;;;;5007506;28;19933;-88
2023/08/02 10:47:22;;;;;;;;;;;;;;;;;;5004395;28;20441;-88
2023/08/02 10:49:48;;;;;;;;;;;;;;;;;;5010266;28;21047;-89
2023/08/02 10:52:14;;;;;;;;;;;;;;;;;;5014556;28;20012;-88
2023/08/02 10:54:40;;;;;;;;;;;;;;;;;;5009731;28;19929;-88
2023/08/02 10:57:06;;;;;;;;;;;;;;;;;;5017502;28;19929;-88
2023/08/02 10:59:32;;;;;;;;;;;;;;;;;;5014859;28;20434;-88
2023/08/02 11:01:58;;;;;;;;;;;;;;;;;;5016210;28;19925;-88
2023/08/02 11:04:24;;;;;;;;;;;;;;;;;;5031670;28;19957;-87
2023/08/02 11:06:50;;;;;;;;;;;;;;;;;;5001536;28;19921;-88
2023/08/02 11:09:16;;;;;;;;;;;;;;;;;;5011446;28;19952;-88
2023/08/02 11:11:42;;;;;;;;;;;;;;;;;;5016696;28;19920;-88
2023/08/02 11:14:08;;;;;;;;;;;;;;;;;;5012638;28;19925;-88
2023/08/02 11:16:34;;;;;;;;;;;;;;;;;;4999371;28;19932;-88
2023/08/02 11:19:00;;;;;;;;;;;;;;;;;;5017232;28;19986;-88
2023/08/02 11:21:26;;;;;;;;;;;;;;;;;;4992903;28;19928;-88
2023/08/02 11:23:52;;;;;;;;;;;;;;;;;;5016618;28;19924;-87
2023/08/02 11:26:19;;;;;;;;;;;;;;;;;;5013316;28;19921;-87
2023/08/02 11:28:45;;;;;;;;;;;;;;;;;;5015683;28;19935;-88
2023/08/02 11:31:11;;;;;;;;;;;;;;;;;;5011529;28;19925;-88
2023/08/02 11:33:37;;;;;;;;;;;;;;;;;;5032780;28;19936;-87
2023/08/02 11:36:03;;;;;;;;;;;;;;;;;;5018529;28;19920;-88
2023/08/02 11:38:29;;;;;;;;;;;;;;;;;;5021088;28;19931;-88
2023/08/02 11:40:55;;;;;;;;;;;;;;;;;;5005502;28;19928;-88
2023/08/02 11:43:21;;;;;;;;;;;;;;;;;;5015940;28;20492;-87
2023/08/02 11:45:47;;;;;;;;;;;;;;;;;;5024901;28;19925;-87
2023/08/02 11:48:13;;;;;;;;;;;;;;;;;;5001268;28;20351;-88
2023/08/02 11:50:39;;;;;;;;;;;;;;;;;;5004828;28;19944;-87
2023/08/02 11:53:05;;;;;;;;;;;;;;;;;;5024027;28;19975;-88
2023/08/02 11:55:32;;;;;;;;;;;;;;;;;;5015773;28;20015;-87
2023/08/02 11:57:58;;;;;;;;;;;;;;;;;;5012740;28;19978;-88
2023/08/02 12:00:24;;;;;;;;;;;;;;;;;;5002525;28;19928;-87
2023/08/02 12:02:50;;;;;;;;;;;;;;;;;;5007338;28;20349;-89
2023/08/02 12:05:16;;;;;;;;;;;;;;;;;;5019517;28;20036;-88
2023/08/02 12:07:42;;;;;;;;;;;;;;;;;;5024039;28;20469;-88
2023/08/02 12:10:08;;;;;;;;;;;;;;;;;;5006213;28;19932;-89
2023/08/02 12:12:34;;;;;;;;;;;;;;;;;;5008777;28;19925;-88
2023/08/02 12:15:00;;;;;;;;;;;;;;;;;;4993174;28;20318;-88
2023/08/02 12:17:26;;;;;;;;;;;;;;;;;;5021531;28;19928;-88
2023/08/02 12:19:52;;;;;;;;;;;;;;;;;;5003228;28;20016;-88
2023/08/02 12:22:18;;;;;;;;;;;;;;;;;;5028388;28;19928;-89
2023/08/02 12:24:47;;;;;;;;;;;;;;;;;;5015991;28;19932;-89
2023/08/02 12:27:14;;;;;;;;;;;;;;;;;;5002642;28;20290;-89
2023/08/02 12:29:40;;;;;;;;;;;;;;;;;;4996650;28;19929;-89
2023/08/02 12:32:06;;;;;;;;;;;;;;;;;;5016061;28;19929;-89
2023/08/02 12:34:32;;;;;;;;;;;;;;;;;;4993792;28;19939;-90
2023/08/02 12:36:59;;;;;;;;;;;;;;;;;;5001819;28;19920;-90
2023/08/02 12:39:25;;;;;;;;;;;;;;;;;;4995895;28;19971;-90
2023/08/02 12:41:51;;;;;;;;;;;;;;;;;;5000960;28;20015;-89
2023/08/02 12:44:17;;;;;;;;;;;;;;;;;;5010397;28;19954;-89
2023/08/02 12:46:43;;;;;;;;;;;;;;;;;;5013383;28;19924;-90
2023/08/02 12:49:09;;;;;;;;;;;;;;;;;;4997901;28;19925;-89
2023/08/02 12:51:38;;;;;;;;;;;;;;;;;;4997224;28;19928;-89
2023/08/02 12:54:04;;;;;;;;;;;;;;;;;;4983224;28;19960;-89
2023/08/02 13:02:13;;;;;;;;;;;;;;;;;;5090399;22;19928;-87
2023/08/02 13:04:44;;;;;;;;;;;;;;;;;;5052320;28;19924;-87
2023/08/02 13:07:13;;;;;;;;;;;;;;;;;;5028861;28;19928;-87
2023/08/02 13:09:46;;;;;;;;;;;;;;;;;;5032602;28;19928;-87
2023/08/02 13:12:33;;;;;;;;;;;;;;;;;;5048218;28;19928;-87
2023/08/02 13:18:00;;;;;;;;;;;;;;;;;;5054736;28;20334;-88
2023/08/02 13:20:32;;;;;;;;;;;;;;;;;;5046370;28;19928;-90
2023/08/02 13:25:47;;;;;;;;;;;;;;;;;;5045557;28;20290;-88
2023/08/02 13:28:15;;;;;;;;;;;;;;;;;;5040762;28;19947;-87
2023/08/02 13:30:51;;;;;;;;;;;;;;;;;;5035277;28;20378;-88
2023/08/02 13:33:33;;;;;;;;;;;;;;;;;;;;;
2023/08/02 13:36:02;;;;;;;;;;;;;;;;;;5050285;28;20406;-87
2023/08/02 13:38:41;;;;;;;;;;;;;;;;;;;;;
2023/08/02 13:44:08;;;;;;;;;;;;;;;;;;5046663;28;19932;-87
2023/08/02 13:46:55;;;;;;;;;;;;;;;;;;5041922;28;19932;-86
2023/08/02 13:49:28;;;;;;;;;;;;;;;;;;5033631;28;19924;-88
2023/08/02 13:51:57;;;;;;;;;;;;;;;;;;5020640;28;19966;-87
2023/08/02 13:54:28;;;;;;;;;;;;;;;;;;5029667;28;19928;-88
2023/08/02 14:00:20;;;;;;;;;;;;;;;;;;4995965;28;19991;-89
2023/08/02 14:05:48;;;;;;;;;;;;;;;;;;4923929;28;20685;-89
2023/08/02 14:08:49;;;;;;;;;;;;;;;;;;4910716;28;19929;-89
2023/08/02 14:11:34;;;;;;;;;;;;;;;;;;4951281;28;19929;-89
2023/08/02 14:16:50;;;;;;;;;;;;;;;;;;4969649;28;20414;-87
2023/08/02 14:19:24;;;;;;;;;;;;;;;;;;4952229;28;19925;-87
2023/08/02 14:22:07;;;;;;;;;;;;;;;;;;;;;
2023/08/02 14:24:42;;;;;;;;;;;;;;;;;;4969393;28;20041;-87
2023/08/02 14:29:54;;;;;;;;;;;;;;;;;;4975666;28;19921;-86
2023/08/02 14:32:23;;;;;;;;;;;;;;;;;;4974111;28;19929;-88
2023/08/02 14:35:07;;;;;;;;;;;;;;;;;;4959033;28;19921;-87
2023/08/02 14:37:38;;;;;;;;;;;;;;;;;;4969366;28;19931;-87
2023/08/02 14:40:07;;;;;;;;;;;;;;;;;;4967095;28;20406;-87
2023/08/02 14:42:50;;;;;;;;;;;;;;;;;;;;;
2023/08/02 14:45:24;;;;;;;;;;;;;;;;;;4967762;28;19969;-87
2023/08/02 14:47:57;;;;;;;;;;;;;;;;;;4967354;28;19929;-87
2023/08/02 14:50:26;;;;;;;;;;;;;;;;;;4976862;28;20506;-88
2023/08/02 14:53:01;;;;;;;;;;;;;;;;;;4959765;28;19937;-87
2023/08/02 14:55:30;;;;;;;;;;;;;;;;;;4956751;28;19940;-87
2023/08/02 14:58:02;;;;;;;;;;;;;;;;;;4969025;28;19979;-87
2023/08/02 15:00:31;;;;;;;;;;;;;;;;;;4953391;28;19930;-86
2023/08/02 15:03:08;;;;;;;;;;;;;;;;;;4971139;28;19937;-87
2023/08/02 15:05:39;;;;;;;;;;;;;;;;;;4952737;28;19937;-87
2023/08/02 15:08:05;;;;;;;;;;;;;;;;;;4963901;28;19972;-86
2023/08/02 15:10:36;;;;;;;;;;;;;;;;;;5012500;28;19994;-87
2023/08/02 15:13:08;;;;;;;;;;;;;;;;;;5010253;28;19929;-89
2023/08/02 15:15:38;;;;;;;;;;;;;;;;;;5036186;28;19925;-88
2023/08/02 15:18:07;;;;;;;;;;;;;;;;;;5028743;28;20904;-87
2023/08/02 15:20:48;;;;;;;;;;;;;;;;;;5027865;28;20409;-87
2023/08/02 15:23:17;;;;;;;;;;;;;;;;;;5038402;28;19936;-87
2023/08/02 15:25:46;;;;;;;;;;;;;;;;;;5025472;28;19949;-88
2023/08/02 15:28:15;;;;;;;;;;;;;;;;;;5005670;28;19936;-87
2023/08/02 15:30:41;;;;;;;;;;;;;;;;;;5011647;28;19925;-87
2023/08/02 15:33:07;;;;;;;;;;;;;;;;;;5029826;28;19925;-87
2023/08/02 15:35:33;;;;;;;;;;;;;;;;;;5026642;28;19975;-87
2023/08/02 15:37:59;;;;;;;;;;;;;;;;;;5031225;28;19929;-87
2023/08/02 15:40:25;;;;;;;;;;;;;;;;;;5009086;28;20364;-86
2023/08/02 15:42:51;;;;;;;;;;;;;;;;;;5028129;28;19928;-87
2023/08/02 15:45:17;;;;;;;;;;;;;;;;;;5004889;28;19929;-86
2023/08/02 15:47:43;;;;;;;;;;;;;;;;;;5023673;28;19931;-87
2023/08/02 15:50:12;;;;;;;;;;;;;;;;;;5007870;28;19932;-88
2023/08/02 15:52:38;;;;;;;;;;;;;;;;;;5029010;28;19977;-87
2023/08/02 15:55:10;;;;;;;;;;;;;;;;;;5025671;28;19929;-86
2023/08/02 15:57:36;;;;;;;;;;;;;;;;;;5004326;28;21591;-87
2023/08/02 16:02:54;;;;;;;;;;;;;;;;;;5017071;28;19932;-87
2023/08/02 16:05:23;;;;;;;;;;;;;;;;;;5020221;28;19948;-87
2023/08/02 16:07:51;;;;;;;;;;;;;;;;;;5010323;28;19932;-87
2023/08/02 16:10:23;;;;;;;;;;;;;;;;;;5026402;28;19929;-88
2023/08/02 16:12:52;;;;;;;;;;;;;;;;;;5026542;28;19935;-86
2023/08/02 16:15:20;;;;;;;;;;;;;;;;;;5003756;28;19928;-86
2023/08/02 16:17:48;;;;;;;;;;;;;;;;;;5020639;28;19935;-86
2023/08/02 16:20:14;;;;;;;;;;;;;;;;;;5023070;28;19956;-87
2023/08/02 16:22:40;;;;;;;;;;;;;;;;;;5022772;28;20406;-87
2023/08/02 16:25:09;;;;;;;;;;;;;;;;;;5023760;28;19932;-87
2023/08/02 16:27:35;;;;;;;;;;;;;;;;;;5026961;28;20286;-87
2023/08/02 16:30:08;;;;;;;;;;;;;;;;;;5023679;28;19929;-87
2023/08/02 16:32:38;;;;;;;;;;;;;;;;;;5031011;28;20445;-83
2023/08/02 16:35:04;;;;;;;;;;;;;;;;;;5027161;28;20008;-83
2023/08/02 16:37:30;;;;;;;;;;;;;;;;;;5029790;28;20012;-83
2023/08/02 16:39:56;;;;;;;;;;;;;;;;;;5025281;28;20476;-82
2023/08/02 16:42:24;;;;;;;;;;;;;;;;;;5015407;28;19929;-82
2023/08/02 16:44:50;;;;;;;;;;;;;;;;;;5030196;28;19929;-82
2023/08/02 16:47:16;;;;;;;;;;;;;;;;;;5024590;28;19928;-83
2023/08/02 16:49:45;;;;;;;;;;;;;;;;;;5028438;28;19931;-83
2023/08/02 16:52:26;;;;;;;;;;;;;;;;;;5037235;28;19925;-83
2023/08/02 16:54:52;;;;;;;;;;;;;;;;;;5030274;28;19931;-83
2023/08/02 16:57:35;;;;;;;;;;;;;;;;;;5025437;28;19936;-83
2023/08/02 17:00:04;;;;;;;;;;;;;;;;;;5027470;28;19943;-83
2023/08/02 17:02:30;;;;;;;;;;;;;;;;;;5014292;28;20320;-83
2023/08/02 17:04:58;;;;;;;;;;;;;;;;;;5026554;28;19929;-83
2023/08/02 17:07:24;;;;;;;;;;;;;;;;;;5022527;28;20066;-83
2023/08/02 17:09:52;;;;;;;;;;;;;;;;;;5024401;28;19974;-83
2023/08/02 17:12:18;;;;;;;;;;;;;;;;;;5019814;28;19924;-83
2023/08/02 17:14:52;;;;;;;;;;;;;;;;;;5027475;28;20444;-83
2023/08/02 17:17:22;;;;;;;;;;;;;;;;;;5024959;28;19924;-83